sensor_id;sensor_type;location;lat;lon;timestamp;pressure;altitude;pressure_sealevel;temperature;humidity
75521;BME280;64102;48.628;9.002;2023-01-25T00:02:00;97542.78;;;0.26;95.70
75521;BME280;64102;48.628;9.002;2023-01-25T00:04:26;97542.78;;;0.26;95.83
75521;BME280;64102;48.628;9.002;2023-01-25T00:06:51;97540.25;;;0.26;95.75
75521;BME280;64102;48.628;9.002;2023-01-25T00:09:18;97543.53;;;0.29;95.82
75521;BME280;64102;48.628;9.002;2023-01-25T00:11:43;97538.50;;;0.28;95.82
75521;BME280;64102;48.628;9.002;2023-01-25T00:14:10;97538.47;;;0.29;95.91
75521;BME280;64102;48.628;9.002;2023-01-25T00:16:36;97530.88;;;0.28;95.74
75521;BME280;64102;48.628;9.002;2023-01-25T00:19:02;97527.59;;;0.24;95.94
75521;BME280;64102;48.628;9.002;2023-01-25T00:21:27;97526.75;;;0.24;96.01
75521;BME280;64102;48.628;9.002;2023-01-25T00:23:53;97522.47;;;0.26;95.78
75521;BME280;64102;48.628;9.002;2023-01-25T00:26:18;97527.56;;;0.26;95.88
75521;BME280;64102;48.628;9.002;2023-01-25T00:28:49;97515.63;;;0.28;95.62
75521;BME280;64102;48.628;9.002;2023-01-25T00:31:21;97516.50;;;0.27;95.85
75521;BME280;64102;48.628;9.002;2023-01-25T00:33:54;97512.25;;;0.29;95.75
75521;BME280;64102;48.628;9.002;2023-01-25T00:36:25;97516.44;;;0.30;95.67
75521;BME280;64102;48.628;9.002;2023-01-25T00:38:52;97512.25;;;0.29;95.96
75521;BME280;64102;48.628;9.002;2023-01-25T00:41:18;97519.88;;;0.27;95.73
75521;BME280;64102;48.628;9.002;2023-01-25T00:43:43;97521.53;;;0.30;95.89
75521;BME280;64102;48.628;9.002;2023-01-25T00:46:14;97522.31;;;0.32;95.71
75521;BME280;64102;48.628;9.002;2023-01-25T00:48:40;97531.75;;;0.27;95.69
75521;BME280;64102;48.628;9.002;2023-01-25T00:51:06;97526.63;;;0.28;95.57
75521;BME280;64102;48.628;9.002;2023-01-25T00:53:31;97520.69;;;0.29;95.70
75521;BME280;64102;48.628;9.002;2023-01-25T00:55:56;97515.59;;;0.31;95.54
75521;BME280;64102;48.628;9.002;2023-01-25T00:58:22;97507.97;;;0.31;95.69
75521;BME280;64102;48.628;9.002;2023-01-25T01:00:47;97506.22;;;0.31;95.85
75521;BME280;64102;48.628;9.002;2023-01-25T01:03:12;97502.88;;;0.31;95.81
75521;BME280;64102;48.628;9.002;2023-01-25T01:05:38;97501.13;;;0.33;95.82
75521;BME280;64102;48.628;9.002;2023-01-25T01:08:03;97502.06;;;0.30;95.50
75521;BME280;64102;48.628;9.002;2023-01-25T01:10:29;97501.13;;;0.33;95.31
75521;BME280;64102;48.628;9.002;2023-01-25T01:12:54;97507.88;;;0.34;95.25
75521;BME280;64102;48.628;9.002;2023-01-25T01:15:20;97496.88;;;0.33;95.74
75521;BME280;64102;48.628;9.002;2023-01-25T01:17:45;97500.28;;;0.32;95.42
75521;BME280;64102;48.628;9.002;2023-01-25T01:20:11;97500.25;;;0.34;95.36
75521;BME280;64102;48.628;9.002;2023-01-25T01:22:37;97504.53;;;0.32;95.19
75521;BME280;64102;48.628;9.002;2023-01-25T01:25:02;97501.13;;;0.33;95.53
75521;BME280;64102;48.628;9.002;2023-01-25T01:27:28;97500.34;;;0.31;95.60
75521;BME280;64102;48.628;9.002;2023-01-25T01:29:53;97494.38;;;0.32;95.44
75521;BME280;64102;48.628;9.002;2023-01-25T01:32:18;97497.81;;;0.31;95.31
75521;BME280;64102;48.628;9.002;2023-01-25T01:34:44;97498.69;;;0.30;95.37
75521;BME280;64102;48.628;9.002;2023-01-25T01:37:09;97502.06;;;0.30;95.41
75521;BME280;64102;48.628;9.002;2023-01-25T01:39:34;97488.47;;;0.31;95.61
75521;BME280;64102;48.628;9.002;2023-01-25T01:42:00;97497.88;;;0.28;95.41
75521;BME280;64102;48.628;9.002;2023-01-25T01:44:52;97494.44;;;0.30;95.46
75521;BME280;64102;48.628;9.002;2023-01-25T01:47:31;97504.59;;;0.30;95.68
75521;BME280;64102;48.628;9.002;2023-01-25T01:50:02;97501.97;;;0.33;95.29
75521;BME280;64102;48.628;9.002;2023-01-25T01:52:36;97499.41;;;0.33;95.23
75521;BME280;64102;48.628;9.002;2023-01-25T01:57:37;97498.50;;;0.36;95.51
75521;BME280;64102;48.628;9.002;2023-01-25T02:00:15;97490.13;;;0.32;95.32
75521;BME280;64102;48.628;9.002;2023-01-25T02:02:41;97497.84;;;0.29;95.52
75521;BME280;64102;48.628;9.002;2023-01-25T02:05:11;97492.63;;;0.34;95.12
75521;BME280;64102;48.628;9.002;2023-01-25T02:07:39;97508.78;;;0.31;95.40
75521;BME280;64102;48.628;9.002;2023-01-25T02:10:07;97505.22;;;0.38;94.96
75521;BME280;64102;48.628;9.002;2023-01-25T02:12:34;97498.44;;;0.39;94.72
75521;BME280;64102;48.628;9.002;2023-01-25T02:14:59;97504.38;;;0.38;95.15
75521;BME280;64102;48.628;9.002;2023-01-25T02:22:55;97494.34;;;0.33;95.25
75521;BME280;64102;48.628;9.002;2023-01-25T02:25:23;97489.22;;;0.35;94.89
75521;BME280;64102;48.628;9.002;2023-01-25T02:27:56;97491.72;;;0.36;94.72
75521;BME280;64102;48.628;9.002;2023-01-25T02:30:23;97490.84;;;0.37;94.83
75521;BME280;64102;48.628;9.002;2023-01-25T02:32:48;97484.06;;;0.38;94.50
75521;BME280;64102;48.628;9.002;2023-01-25T02:35:33;97479.91;;;0.35;94.85
75521;BME280;64102;48.628;9.002;2023-01-25T02:38:00;97487.53;;;0.35;94.62
75521;BME280;64102;48.628;9.002;2023-01-25T02:40:26;97477.31;;;0.37;94.87
75521;BME280;64102;48.628;9.002;2023-01-25T02:42:52;97475.75;;;0.31;94.94
75521;BME280;64102;48.628;9.002;2023-01-25T02:45:23;97478.28;;;0.33;95.04
75521;BME280;64102;48.628;9.002;2023-01-25T02:47:50;97475.97;;;0.25;95.40
75521;BME280;64102;48.628;9.002;2023-01-25T02:50:16;97475.97;;;0.25;95.62
75521;BME280;64102;48.628;9.002;2023-01-25T02:52:41;97465.81;;;0.25;95.01
75521;BME280;64102;48.628;9.002;2023-01-25T02:55:07;97475.16;;;0.23;95.34
75521;BME280;64102;48.628;9.002;2023-01-25T02:57:32;97471.72;;;0.26;95.43
75521;BME280;64102;48.628;9.002;2023-01-25T02:59:58;97478.28;;;0.33;95.05
75521;BME280;64102;48.628;9.002;2023-01-25T03:02:23;97475.72;;;0.34;94.63
75521;BME280;64102;48.628;9.002;2023-01-25T03:04:48;97472.47;;;0.29;95.02
75521;BME280;64102;48.628;9.002;2023-01-25T03:07:15;97470.88;;;0.25;95.12
75521;BME280;64102;48.628;9.002;2023-01-25T03:09:40;97471.00;;;0.21;95.54
75521;BME280;64102;48.628;9.002;2023-01-25T03:12:05;97470.00;;;0.26;95.57
75521;BME280;64102;48.628;9.002;2023-01-25T03:14:31;97470.91;;;0.24;95.40
75521;BME280;64102;48.628;9.002;2023-01-25T03:16:56;97469.50;;;0.14;95.94
75521;BME280;64102;48.628;9.002;2023-01-25T03:19:22;97467.88;;;0.11;96.00
75521;BME280;64102;48.628;9.002;2023-01-25T03:21:47;97466.22;;;0.10;96.04
75521;BME280;64102;48.628;9.002;2023-01-25T03:24:12;97448.41;;;0.12;96.06
75521;BME280;64102;48.628;9.002;2023-01-25T03:26:38;97450.03;;;0.14;96.15
75521;BME280;64102;48.628;9.002;2023-01-25T03:29:21;97449.41;;;0.06;95.94
75521;BME280;64102;48.628;9.002;2023-01-25T03:31:47;97448.28;;;0.16;96.18
75521;BME280;64102;48.628;9.002;2023-01-25T03:34:12;97435.81;;;0.09;96.01
75521;BME280;64102;48.628;9.002;2023-01-25T03:36:37;97439.97;;;0.11;96.30
75521;BME280;64102;48.628;9.002;2023-01-25T03:39:03;97435.72;;;0.12;96.10
75521;BME280;64102;48.628;9.002;2023-01-25T03:41:28;97431.50;;;0.11;96.11
75521;BME280;64102;48.628;9.002;2023-01-25T03:43:53;97427.84;;;0.21;95.85
75521;BME280;64102;48.628;9.002;2023-01-25T03:46:19;97425.94;;;0.29;95.14
75521;BME280;64102;48.628;9.002;2023-01-25T03:48:44;97424.44;;;0.22;95.52
75521;BME280;64102;48.628;9.002;2023-01-25T03:51:09;97421.91;;;0.22;95.61
75521;BME280;64102;48.628;9.002;2023-01-25T03:53:35;97420.06;;;0.27;95.11
75521;BME280;64102;48.628;9.002;2023-01-25T03:56:05;97427.66;;;0.27;95.30
75521;BME280;64102;48.628;9.002;2023-01-25T03:58:38;97426.72;;;0.31;95.18
75521;BME280;64102;48.628;9.002;2023-01-25T04:01:05;97430.13;;;0.30;95.09
75521;BME280;64102;48.628;9.002;2023-01-25T04:03:32;97427.53;;;0.31;94.88
75521;BME280;64102;48.628;9.002;2023-01-25T04:05:58;97424.22;;;0.29;95.12
75521;BME280;64102;48.628;9.002;2023-01-25T04:08:24;97426.78;;;0.28;95.05
75521;BME280;64102;48.628;9.002;2023-01-25T04:10:55;97414.94;;;0.28;94.87
75521;BME280;64102;48.628;9.002;2023-01-25T04:13:22;97421.66;;;0.31;95.12
75521;BME280;64102;48.628;9.002;2023-01-25T04:15:48;97414.91;;;0.30;95.21
75521;BME280;64102;48.628;9.002;2023-01-25T04:18:13;97425.00;;;0.31;94.63
75521;BME280;64102;48.628;9.002;2023-01-25T04:20:39;97432.63;;;0.31;94.67
75521;BME280;64102;48.628;9.002;2023-01-25T04:23:05;97425.84;;;0.32;94.75
75521;BME280;64102;48.628;9.002;2023-01-25T04:25:31;97418.28;;;0.30;94.89
75521;BME280;64102;48.628;9.002;2023-01-25T04:27:56;97425.00;;;0.31;95.12
75521;BME280;64102;48.628;9.002;2023-01-25T04:30:22;97429.28;;;0.31;94.95
75521;BME280;64102;48.628;9.002;2023-01-25T04:32:47;97419.91;;;0.31;94.58
75521;BME280;64102;48.628;9.002;2023-01-25T04:35:13;97429.44;;;0.25;94.79
75521;BME280;64102;48.628;9.002;2023-01-25T04:37:38;97420.22;;;0.22;95.06
75521;BME280;64102;48.628;9.002;2023-01-25T04:40:04;97421.84;;;0.23;95.13
75521;BME280;64102;48.628;9.002;2023-01-25T04:42:29;97426.16;;;0.21;95.05
75521;BME280;64102;48.628;9.002;2023-01-25T04:44:55;97417.50;;;0.27;94.91
75521;BME280;64102;48.628;9.002;2023-01-25T04:47:20;97419.16;;;0.29;95.17
75521;BME280;64102;48.628;9.002;2023-01-25T04:49:45;97418.47;;;0.23;95.33
75521;BME280;64102;48.628;9.002;2023-01-25T04:52:11;97421.53;;;0.05;95.57
75521;BME280;64102;48.628;9.002;2023-01-25T04:54:36;97417.22;;;0.08;96.30
75521;BME280;64102;48.628;9.002;2023-01-25T04:57:01;97410.38;;;0.10;94.87
75521;BME280;64102;48.628;9.002;2023-01-25T04:59:27;97410.25;;;0.15;95.29
75521;BME280;64102;48.628;9.002;2023-01-25T05:01:53;97410.97;;;0.20;95.06
75521;BME280;64102;48.628;9.002;2023-01-25T05:04:18;97406.94;;;0.13;94.81
75521;BME280;64102;48.628;9.002;2023-01-25T05:06:43;97404.88;;;0.25;94.66
75521;BME280;64102;48.628;9.002;2023-01-25T05:09:09;97404.19;;;0.20;94.72
75521;BME280;64102;48.628;9.002;2023-01-25T05:11:34;97401.81;;;0.14;95.10
75521;BME280;64102;48.628;9.002;2023-01-25T05:14:00;97398.28;;;0.18;94.91
75521;BME280;64102;48.628;9.002;2023-01-25T05:16:25;97399.84;;;0.24;94.07
75521;BME280;64102;48.628;9.002;2023-01-25T05:18:50;97407.91;;;0.09;94.02
75521;BME280;64102;48.628;9.002;2023-01-25T05:21:16;97404.34;;;0.14;94.73
75521;BME280;64102;48.628;9.002;2023-01-25T05:24:00;97402.72;;;0.12;94.27
75521;BME280;64102;48.628;9.002;2023-01-25T05:26:25;97405.03;;;0.19;93.62
75521;BME280;64102;48.628;9.002;2023-01-25T05:29:09;97399.75;;;0.27;93.37
75521;BME280;64102;48.628;9.002;2023-01-25T05:31:35;97397.31;;;0.24;93.39
75521;BME280;64102;48.628;9.002;2023-01-25T05:34:00;97400.03;;;0.18;94.08
75521;BME280;64102;48.628;9.002;2023-01-25T05:36:25;97401.59;;;0.22;94.01
75521;BME280;64102;48.628;9.002;2023-01-25T05:38:51;97396.44;;;0.25;93.61
75521;BME280;64102;48.628;9.002;2023-01-25T05:41:17;97401.75;;;0.17;93.47
75521;BME280;64102;48.628;9.002;2023-01-25T05:43:42;97403.19;;;0.26;93.07
75521;BME280;64102;48.628;9.002;2023-01-25T05:46:08;97401.41;;;0.28;92.82
75521;BME280;64102;48.628;9.002;2023-01-25T05:48:33;97398.81;;;0.31;93.15
75521;BME280;64102;48.628;9.002;2023-01-25T05:50:59;97392.28;;;0.22;92.37
75521;BME280;64102;48.628;9.002;2023-01-25T05:53:25;97394.72;;;0.25;92.83
75521;BME280;64102;48.628;9.002;2023-01-25T05:55:51;97393.78;;;0.28;93.12
75521;BME280;64102;48.628;9.002;2023-01-25T05:58:17;97394.50;;;0.33;92.60
75521;BME280;64102;48.628;9.002;2023-01-25T06:00:42;97390.09;;;0.39;92.32
75521;BME280;64102;48.628;9.002;2023-01-25T06:03:07;97391.78;;;0.39;92.16
75521;BME280;64102;48.628;9.002;2023-01-25T06:05:33;97391.00;;;0.37;92.10
75521;BME280;64102;48.628;9.002;2023-01-25T06:07:58;97393.50;;;0.38;91.86
75521;BME280;64102;48.628;9.002;2023-01-25T06:10:23;97383.34;;;0.38;91.28
75521;BME280;64102;48.628;9.002;2023-01-25T06:12:49;97393.50;;;0.38;91.46
75521;BME280;64102;48.628;9.002;2023-01-25T06:15:14;97385.41;;;0.26;92.34
75521;BME280;64102;48.628;9.002;2023-01-25T06:17:39;97387.84;;;0.29;91.64
75521;BME280;64102;48.628;9.002;2023-01-25T06:20:05;97388.72;;;0.28;91.84
75521;BME280;64102;48.628;9.002;2023-01-25T06:22:30;97386.00;;;0.34;91.34
75521;BME280;64102;48.628;9.002;2023-01-25T06:24:56;97396.28;;;0.31;91.45
75521;BME280;64102;48.628;9.002;2023-01-25T06:27:21;97386.00;;;0.34;91.35
75521;BME280;64102;48.628;9.002;2023-01-25T06:29:46;97380.09;;;0.33;90.70
75521;BME280;64102;48.628;9.002;2023-01-25T06:32:12;97384.44;;;0.30;90.36
75521;BME280;64102;48.628;9.002;2023-01-25T06:34:37;97381.56;;;0.13;90.83
75521;BME280;64102;48.628;9.002;2023-01-25T06:37:03;97379.66;;;0.19;91.35
75521;BME280;64102;48.628;9.002;2023-01-25T06:39:28;97385.53;;;0.21;91.77
75521;BME280;64102;48.628;9.002;2023-01-25T06:41:53;97377.81;;;0.24;90.72
75521;BME280;64102;48.628;9.002;2023-01-25T06:44:20;97383.00;;;0.21;91.25
75521;BME280;64102;48.628;9.002;2023-01-25T06:46:45;97378.00;;;0.18;91.38
75521;BME280;64102;48.628;9.002;2023-01-25T06:49:11;97391.44;;;0.22;91.55
75521;BME280;64102;48.628;9.002;2023-01-25T06:51:36;97382.94;;;0.23;91.16
75521;BME280;64102;48.628;9.002;2023-01-25T06:54:02;97395.63;;;0.23;90.13
75521;BME280;64102;48.628;9.002;2023-01-25T06:56:28;97384.94;;;0.13;90.83
75521;BME280;64102;48.628;9.002;2023-01-25T06:58:53;97387.53;;;0.10;91.17
75521;BME280;64102;48.628;9.002;2023-01-25T07:01:23;97378.06;;;0.17;91.40
75521;BME280;64102;48.628;9.002;2023-01-25T07:03:53;97376.22;;;0.22;90.39
75521;BME280;64102;48.628;9.002;2023-01-25T07:06:19;97380.72;;;0.12;91.14
75521;BME280;64102;48.628;9.002;2023-01-25T07:08:44;97368.94;;;0.10;90.77
75521;BME280;64102;48.628;9.002;2023-01-25T07:11:11;97363.00;;;0.11;90.53
75521;BME280;64102;48.628;9.002;2023-01-25T07:13:41;97357.66;;;0.20;90.60
75521;BME280;64102;48.628;9.002;2023-01-25T07:16:10;97358.50;;;0.20;90.47
75521;BME280;64102;48.628;9.002;2023-01-25T07:18:35;97350.06;;;0.18;90.13
75521;BME280;64102;48.628;9.002;2023-01-25T07:21:04;97353.41;;;0.20;90.23
75521;BME280;64102;48.628;9.002;2023-01-25T07:23:31;97354.66;;;0.07;90.49
75521;BME280;64102;48.628;9.002;2023-01-25T07:25:57;97353.38;;;-0.08;90.72
75521;BME280;64102;48.628;9.002;2023-01-25T07:28:23;97344.09;;;-0.09;90.23
75521;BME280;64102;48.628;9.002;2023-01-25T07:30:49;97353.63;;;-0.17;91.28
75521;BME280;64102;48.628;9.002;2023-01-25T07:33:15;97355.28;;;-0.16;91.05
75521;BME280;64102;48.628;9.002;2023-01-25T07:35:41;97353.31;;;-0.05;91.82
75521;BME280;64102;48.628;9.002;2023-01-25T07:38:06;97351.19;;;0.10;91.24
75521;BME280;64102;48.628;9.002;2023-01-25T07:40:31;97352.59;;;0.20;91.17
75521;BME280;64102;48.628;9.002;2023-01-25T07:42:57;97336.28;;;0.27;90.74
75521;BME280;64102;48.628;9.002;2023-01-25T07:45:22;97340.47;;;0.29;89.38
75521;BME280;64102;48.628;9.002;2023-01-25T07:47:57;97334.53;;;0.29;89.39
75521;BME280;64102;48.628;9.002;2023-01-25T07:50:24;97337.25;;;0.23;88.95
75521;BME280;64102;48.628;9.002;2023-01-25T07:52:50;97337.19;;;0.26;89.13
75521;BME280;64102;48.628;9.002;2023-01-25T07:55:15;97335.34;;;0.31;88.99
75521;BME280;64102;48.628;9.002;2023-01-25T07:57:40;97343.09;;;0.26;89.47
75521;BME280;64102;48.628;9.002;2023-01-25T08:00:06;97353.25;;;0.26;88.83
75521;BME280;64102;48.628;9.002;2023-01-25T08:02:34;97342.59;;;0.14;90.03
75521;BME280;64102;48.628;9.002;2023-01-25T08:04:59;97344.25;;;0.15;89.22
75521;BME280;64102;48.628;9.002;2023-01-25T08:07:26;97342.34;;;0.23;89.76
75521;BME280;64102;48.628;9.002;2023-01-25T08:09:52;97335.25;;;0.34;88.94
75521;BME280;64102;48.628;9.002;2023-01-25T08:12:17;97341.09;;;0.36;88.89
75521;BME280;64102;48.628;9.002;2023-01-25T08:14:43;97336.91;;;0.35;89.22
75521;BME280;64102;48.628;9.002;2023-01-25T08:17:09;97342.81;;;0.35;88.46
75521;BME280;64102;48.628;9.002;2023-01-25T08:19:34;97346.94;;;0.39;88.35
75521;BME280;64102;48.628;9.002;2023-01-25T08:22:00;97346.25;;;0.33;88.21
75521;BME280;64102;48.628;9.002;2023-01-25T08:24:25;97352.31;;;0.29;89.35
75521;BME280;64102;48.628;9.002;2023-01-25T08:26:50;97343.84;;;0.30;88.48
75521;BME280;64102;48.628;9.002;2023-01-25T08:29:16;97343.97;;;0.25;88.43
75521;BME280;64102;48.628;9.002;2023-01-25T08:31:41;97351.63;;;0.24;89.00
75521;BME280;64102;48.628;9.002;2023-01-25T08:34:09;97359.50;;;0.15;88.36
75521;BME280;64102;48.628;9.002;2023-01-25T08:36:35;97349.06;;;0.24;88.37
75521;BME280;64102;48.628;9.002;2023-01-25T08:39:04;97352.00;;;0.10;88.13
75521;BME280;64102;48.628;9.002;2023-01-25T08:41:31;97349.19;;;0.21;88.91
75521;BME280;64102;48.628;9.002;2023-01-25T08:43:57;97339.63;;;0.29;87.49
75521;BME280;64102;48.628;9.002;2023-01-25T08:46:25;97333.56;;;0.33;88.34
75521;BME280;64102;48.628;9.002;2023-01-25T08:48:55;97336.16;;;0.31;88.20
75521;BME280;64102;48.628;9.002;2023-01-25T08:51:23;97330.34;;;0.28;87.70
75521;BME280;64102;48.628;9.002;2023-01-25T08:53:49;97330.28;;;0.31;88.16
75521;BME280;64102;48.628;9.002;2023-01-25T08:56:15;97326.75;;;0.35;87.57
75521;BME280;64102;48.628;9.002;2023-01-25T08:58:42;97328.31;;;0.39;87.23
75521;BME280;64102;48.628;9.002;2023-01-25T09:01:10;97325.25;;;0.00;87.57
75521;BME280;64102;48.628;9.002;2023-01-25T09:03:38;97327.72;;;0.02;89.10
75521;BME280;64102;48.628;9.002;2023-01-25T09:06:04;97320.38;;;0.22;88.94
75521;BME280;64102;48.628;9.002;2023-01-25T09:08:30;97314.94;;;0.34;88.08
75521;BME280;64102;48.628;9.002;2023-01-25T09:13:27;97308.88;;;0.38;88.08
75521;BME280;64102;48.628;9.002;2023-01-25T09:15:58;97304.69;;;0.37;88.08
75521;BME280;64102;48.628;9.002;2023-01-25T09:18:25;97304.25;;;0.23;87.79
75521;BME280;64102;48.628;9.002;2023-01-25T09:20:50;97308.97;;;0.07;88.60
75521;BME280;64102;48.628;9.002;2023-01-25T09:23:15;97313.91;;;0.12;89.29
75521;BME280;64102;48.628;9.002;2023-01-25T09:25:41;97311.59;;;0.32;88.60
75521;BME280;64102;48.628;9.002;2023-01-25T09:28:06;97303.84;;;0.36;87.95
75521;BME280;64102;48.628;9.002;2023-01-25T09:30:36;97307.34;;;0.32;88.48
75521;BME280;64102;48.628;9.002;2023-01-25T09:33:02;97304.78;;;0.34;88.48
75521;BME280;64102;48.628;9.002;2023-01-25T09:35:29;97314.94;;;0.34;88.46
75521;BME280;64102;48.628;9.002;2023-01-25T09:37:55;97311.53;;;0.35;88.37
75521;BME280;64102;48.628;9.002;2023-01-25T09:40:22;97308.75;;;0.42;88.06
75521;BME280;64102;48.628;9.002;2023-01-25T09:42:57;97314.66;;;0.43;87.52
75521;BME280;64102;48.628;9.002;2023-01-25T09:48:03;97306.34;;;0.38;88.43
75521;BME280;64102;48.628;9.002;2023-01-25T09:50:52;97304.53;;;0.41;88.61
75521;BME280;64102;48.628;9.002;2023-01-25T09:53:38;97307.22;;;0.37;88.10
75521;BME280;64102;48.628;9.002;2023-01-25T09:56:24;97310.88;;;0.28;88.40
75521;BME280;64102;48.628;9.002;2023-01-25T09:58:54;97301.66;;;0.26;88.28
75521;BME280;64102;48.628;9.002;2023-01-25T10:04:03;97307.47;;;0.29;89.24
75521;BME280;64102;48.628;9.002;2023-01-25T10:06:42;97307.34;;;0.32;88.97
75521;BME280;64102;48.628;9.002;2023-01-25T10:09:23;97304.69;;;0.37;88.63
75521;BME280;64102;48.628;9.002;2023-01-25T10:11:51;97302.34;;;0.31;89.06
75521;BME280;64102;48.628;9.002;2023-01-25T10:14:18;97303.38;;;0.24;88.59
75521;BME280;64102;48.628;9.002;2023-01-25T10:22:27;97292.91;;;0.34;88.55
75521;BME280;64102;48.628;9.002;2023-01-25T10:25:34;97295.06;;;0.19;89.21
75521;BME280;64102;48.628;9.002;2023-01-25T10:28:29;97293.09;;;0.00;89.83
75521;BME280;64102;48.628;9.002;2023-01-25T10:31:16;97293.84;;;0.04;90.84
75521;BME280;64102;48.628;9.002;2023-01-25T10:33:44;97280.75;;;0.18;89.91
75521;BME280;64102;48.628;9.002;2023-01-25T10:36:15;97290.47;;;0.31;89.69
75521;BME280;64102;48.628;9.002;2023-01-25T10:38:46;97286.56;;;0.21;89.48
75521;BME280;64102;48.628;9.002;2023-01-25T10:41:21;97275.16;;;0.07;89.93
75521;BME280;64102;48.628;9.002;2023-01-25T10:43:51;97272.03;;;0.26;89.60
75521;BME280;64102;48.628;9.002;2023-01-25T10:46:37;97271.19;;;0.26;89.60
75521;BME280;64102;48.628;9.002;2023-01-25T10:49:24;97259.84;;;0.36;89.87
75521;BME280;64102;48.628;9.002;2023-01-25T10:51:51;97256.69;;;0.29;89.43
75521;BME280;64102;48.628;9.002;2023-01-25T10:54:16;97252.06;;;0.42;88.61
75521;BME280;64102;48.628;9.002;2023-01-25T10:56:43;97257.03;;;0.45;88.36
75521;BME280;64102;48.628;9.002;2023-01-25T10:59:20;97252.06;;;0.42;88.68
75521;BME280;64102;48.628;9.002;2023-01-25T11:01:46;97244.47;;;0.40;88.62
75521;BME280;64102;48.628;9.002;2023-01-25T11:04:41;97247.25;;;0.33;88.71
75521;BME280;64102;48.628;9.002;2023-01-25T11:07:25;97243.19;;;0.27;89.00
75521;BME280;64102;48.628;9.002;2023-01-25T11:09:51;97234.72;;;0.28;88.96
75521;BME280;64102;48.628;9.002;2023-01-25T11:12:18;97237.69;;;0.41;88.50
75521;BME280;64102;48.628;9.002;2023-01-25T11:14:46;97235.06;;;0.44;88.97
75521;BME280;64102;48.628;9.002;2023-01-25T11:17:30;97233.84;;;0.56;88.70
75521;BME280;64102;48.628;9.002;2023-01-25T11:22:31;97238.19;;;0.26;88.93
75521;BME280;64102;48.628;9.002;2023-01-25T11:24:56;97237.63;;;0.16;89.62
75521;BME280;64102;48.628;9.002;2023-01-25T11:27:24;97240.59;;;0.30;90.19
75521;BME280;64102;48.628;9.002;2023-01-25T11:30:11;97232.13;;;0.30;89.52
75521;BME280;64102;48.628;9.002;2023-01-25T11:32:39;97222.69;;;0.35;89.34
75521;BME280;64102;48.628;9.002;2023-01-25T11:35:12;97232.28;;;0.25;89.79
75521;BME280;64102;48.628;9.002;2023-01-25T11:40:29;97215.63;;;0.17;90.59
75521;BME280;64102;48.628;9.002;2023-01-25T11:43:27;97218.66;;;0.28;89.91
75521;BME280;64102;48.628;9.002;2023-01-25T11:51:24;97204.53;;;0.45;89.29
75521;BME280;64102;48.628;9.002;2023-01-25T11:54:20;97199.91;;;0.32;88.71
75521;BME280;64102;48.628;9.002;2023-01-25T11:59:38;97199.88;;;0.33;89.16
75521;BME280;64102;48.628;9.002;2023-01-25T12:10:58;97168.94;;;0.47;88.04
75521;BME280;64102;48.628;9.002;2023-01-25T12:18:40;97153.59;;;0.25;89.74
75521;BME280;64102;48.628;9.002;2023-01-25T12:21:28;97148.56;;;0.24;89.12
75521;BME280;64102;48.628;9.002;2023-01-25T12:32:27;97124.34;;;0.14;89.80
75521;BME280;64102;48.628;9.002;2023-01-25T12:35:20;97113.09;;;0.22;89.48
75521;BME280;64102;48.628;9.002;2023-01-25T12:37:48;97111.22;;;0.27;89.18
75521;BME280;64102;48.628;9.002;2023-01-25T12:40:22;97100.03;;;0.33;89.06
75521;BME280;64102;48.628;9.002;2023-01-25T12:42:57;97096.31;;;0.43;88.34
75521;BME280;64102;48.628;9.002;2023-01-25T12:45:43;97082.81;;;0.41;88.18
75521;BME280;64102;48.628;9.002;2023-01-25T12:48:17;97092.31;;;0.36;88.12
75521;BME280;64102;48.628;9.002;2023-01-25T12:53:37;97084.69;;;0.36;88.15
75521;BME280;64102;48.628;9.002;2023-01-25T12:56:06;97082.00;;;0.40;88.95
75521;BME280;64102;48.628;9.002;2023-01-25T12:58:43;97089.16;;;0.29;88.08
75521;BME280;64102;48.628;9.002;2023-01-25T13:01:20;97078.69;;;0.14;88.71
75521;BME280;64102;48.628;9.002;2023-01-25T13:04:13;97080.25;;;-0.09;89.66
75521;BME280;64102;48.628;9.002;2023-01-25T13:12:02;97061.81;;;0.13;90.26
75521;BME280;64102;48.628;9.002;2023-01-25T13:14:41;97057.44;;;0.41;88.78
75521;BME280;64102;48.628;9.002;2023-01-25T13:17:21;97054.75;;;0.45;88.12
75521;BME280;64102;48.628;9.002;2023-01-25T13:19:48;97045.97;;;0.54;87.33
75521;BME280;64102;48.628;9.002;2023-01-25T13:25:19;97046.88;;;0.53;88.05
75521;BME280;64102;48.628;9.002;2023-01-25T13:27:45;97041.69;;;0.56;88.39
75521;BME280;64102;48.628;9.002;2023-01-25T13:32:52;97041.56;;;0.59;87.98
75521;BME280;64102;48.628;9.002;2023-01-25T13:35:38;97034.59;;;0.41;88.39
75521;BME280;64102;48.628;9.002;2023-01-25T13:38:23;97027.13;;;0.36;88.34
75521;BME280;64102;48.628;9.002;2023-01-25T13:41:14;97029.59;;;0.39;88.74
75521;BME280;64102;48.628;9.002;2023-01-25T13:43:43;97022.88;;;0.37;89.07
75521;BME280;64102;48.628;9.002;2023-01-25T13:46:13;97014.44;;;0.36;88.71
75521;BME280;64102;48.628;9.002;2023-01-25T13:48:51;97011.00;;;0.39;88.85
75521;BME280;64102;48.628;9.002;2023-01-25T13:51:18;97012.50;;;0.44;88.65
75521;BME280;64102;48.628;9.002;2023-01-25T13:53:54;97012.56;;;0.41;88.60
75521;BME280;64102;48.628;9.002;2023-01-25T13:56:31;97006.13;;;0.33;89.19
75521;BME280;64102;48.628;9.002;2023-01-25T13:58:58;97007.16;;;0.27;88.45
75521;BME280;64102;48.628;9.002;2023-01-25T14:01:24;97009.81;;;0.24;89.22
75521;BME280;64102;48.628;9.002;2023-01-25T14:03:53;97009.97;;;0.20;88.84
75521;BME280;64102;48.628;9.002;2023-01-25T14:06:23;97009.41;;;0.12;88.29
75521;BME280;64102;48.628;9.002;2023-01-25T14:08:51;97000.59;;;0.22;89.17
75521;BME280;64102;48.628;9.002;2023-01-25T14:11:28;97003.56;;;0.33;88.61
75521;BME280;64102;48.628;9.002;2023-01-25T14:13:58;97001.03;;;0.33;88.25
75521;BME280;64102;48.628;9.002;2023-01-25T14:16:24;96995.41;;;0.25;88.58
75521;BME280;64102;48.628;9.002;2023-01-25T14:18:51;96993.59;;;0.28;88.59
75521;BME280;64102;48.628;9.002;2023-01-25T14:21:19;96988.34;;;0.33;88.38
75521;BME280;64102;48.628;9.002;2023-01-25T14:23:45;96988.22;;;0.36;87.88
75521;BME280;64102;48.628;9.002;2023-01-25T14:26:21;96993.09;;;0.42;87.87
75521;BME280;64102;48.628;9.002;2023-01-25T14:28:49;96991.66;;;0.35;87.59
75521;BME280;64102;48.628;9.002;2023-01-25T14:31:22;96995.09;;;0.34;88.69